Terminal Aerodrome Forecast
Issued by NWS

Home | Current Version | Previous Version | Text Only | Print | Product List | Glossary Off
Versions: 1 2 3 4 5 6 7 8 9 10 11 12 13 14 15 16 17 18 19 20 21 22 23 24

632
FTUS42 KMHX 170308 AAA
TAFPGV
TAF AMD
KPGV 170308Z 1703/1724 35010KT P6SM -RA SCT025 OVC040
     FM170400 03010KT P6SM OVC020
     FM171000 07010KT P6SM SCT020 OVC035
     FM171800 08008KT P6SM OVC020
     FM172100 VRB04KT 5SM -SHRA OVC008
      AMD LTD TO CLD VIS AND WIND=

USA.gov is the U.S. government's official web portal to all federal, state and local government web resources and services.